createdAt,value
2022-11-04T00:02:20.997Z,20.60
2022-11-04T00:04:50.801Z,20.70
2022-11-04T00:07:33.004Z,21.30
2022-11-04T00:10:02.879Z,20.70
2022-11-04T00:12:30.107Z,22.40
2022-11-04T00:15:19.829Z,23.40
2022-11-04T00:17:49.668Z,23.90
2022-11-04T00:20:32.039Z,25.80
2022-11-04T00:23:14.343Z,25.80
2022-11-04T00:25:56.664Z,27.30
2022-11-04T00:28:38.910Z,27.10
2022-11-04T00:31:23.410Z,26.20
2022-11-04T00:33:58.026Z,25.80
2022-11-04T00:36:28.824Z,26.00
2022-11-04T00:38:58.589Z,26.10
2022-11-04T00:41:30.948Z,26.10
2022-11-04T00:44:02.833Z,25.60
2022-11-04T00:46:34.224Z,24.50
2022-11-04T00:49:06.620Z,22.40
2022-11-04T00:51:36.505Z,22.50
2022-11-04T00:54:06.570Z,22.50
2022-11-04T00:56:36.526Z,22.00
2022-11-04T00:59:09.108Z,22.50
2022-11-04T01:01:41.788Z,22.50
2022-11-04T01:04:14.527Z,22.50
2022-11-04T01:06:44.279Z,22.50
2022-11-04T01:09:15.394Z,22.20
2022-11-04T01:11:45.220Z,21.80
2022-11-04T01:14:15.279Z,22.50
2022-11-04T01:16:45.083Z,22.50
2022-11-04T01:19:17.555Z,21.50
2022-11-04T01:21:47.938Z,21.70
2022-11-04T01:24:17.741Z,21.10
2022-11-04T01:26:47.490Z,19.60
2022-11-04T01:29:17.385Z,20.50
2022-11-04T01:31:47.157Z,19.80
2022-11-04T01:34:19.511Z,20.10
2022-11-04T01:36:49.243Z,20.30
2022-11-04T01:39:18.996Z,20.30
2022-11-04T01:41:48.792Z,20.60
2022-11-04T01:44:50.438Z,21.70
2022-11-04T01:47:22.629Z,22.40
2022-11-04T01:49:59.349Z,21.90
2022-11-04T01:52:33.018Z,22.30
2022-11-04T01:55:05.578Z,22.90
2022-11-04T01:57:39.463Z,22.30
2022-11-04T02:00:12.389Z,22.30
2022-11-04T02:02:53.003Z,22.40
2022-11-04T02:05:25.888Z,22.70
2022-11-04T02:07:58.339Z,22.20
2022-11-04T02:10:33.396Z,21.70
2022-11-04T02:13:03.037Z,20.90
2022-11-04T02:15:39.880Z,18.60
2022-11-04T02:18:27.759Z,18.40
2022-11-04T02:21:26.978Z,17.40
2022-11-04T02:24:17.795Z,16.10
2022-11-04T02:27:11.890Z,15.80
2022-11-04T02:30:04.096Z,15.20
2022-11-04T02:32:45.181Z,15.20
2022-11-04T02:35:23.629Z,12.50
2022-11-04T02:38:00.277Z,11.20
2022-11-04T02:40:37.163Z,11.30
2022-11-04T02:43:15.437Z,11.70
2022-11-04T02:45:50.726Z,12.50
2022-11-04T02:48:27.573Z,12.60
2022-11-04T02:51:03.427Z,12.30
2022-11-04T02:53:40.083Z,13.00
2022-11-04T02:56:11.148Z,13.90
2022-11-04T02:58:57.458Z,12.20
2022-11-04T03:01:35.217Z,11.90
2022-11-04T03:04:11.324Z,11.50
2022-11-04T03:06:42.152Z,11.30
2022-11-04T03:09:14.528Z,11.30
2022-11-04T03:11:48.401Z,12.40
2022-11-04T03:14:21.628Z,12.30
2022-11-04T03:16:58.761Z,12.00
2022-11-04T03:19:35.062Z,10.10
2022-11-04T03:22:07.793Z,6.70
2022-11-04T03:24:37.721Z,5.80
2022-11-04T03:27:15.105Z,6.10
2022-11-04T03:29:54.191Z,5.80
2022-11-04T03:32:32.251Z,6.10
2022-11-04T03:35:02.131Z,7.10
2022-11-04T03:37:31.932Z,8.20
2022-11-04T03:40:01.837Z,8.40
2022-11-04T03:42:33.474Z,7.30
2022-11-04T03:45:03.541Z,8.40
2022-11-04T03:47:36.249Z,8.40
2022-11-04T03:50:12.216Z,6.90
2022-11-04T03:52:42.440Z,7.70
2022-11-04T03:55:14.379Z,8.40
2022-11-04T03:57:53.427Z,8.40
2022-11-04T04:00:25.221Z,8.40
2022-11-04T04:03:05.449Z,9.30
2022-11-04T04:05:39.970Z,10.80
2022-11-04T04:08:14.954Z,11.90
2022-11-04T04:10:51.131Z,13.10
2022-11-04T04:13:29.933Z,13.60
2022-11-04T04:16:03.975Z,13.10
2022-11-04T04:18:41.722Z,15.40
2022-11-04T04:21:16.427Z,15.90
2022-11-04T04:24:01.354Z,16.80
2022-11-04T04:26:44.237Z,17.80
2022-11-04T04:29:14.409Z,18.40
2022-11-04T04:31:57.661Z,20.00
2022-11-04T04:34:32.212Z,20.80
2022-11-04T04:37:03.958Z,20.70
2022-11-04T04:39:52.316Z,21.50
2022-11-04T04:42:35.308Z,21.10
2022-11-04T04:45:06.881Z,22.20
2022-11-04T04:47:42.651Z,21.50
2022-11-04T04:50:17.764Z,22.20
2022-11-04T04:52:50.553Z,22.20
2022-11-04T04:55:20.834Z,22.20
2022-11-04T04:57:50.746Z,22.10
2022-11-04T05:00:22.671Z,22.20
2022-11-04T05:02:52.784Z,22.80
2022-11-04T05:05:25.285Z,22.10
2022-11-04T05:07:55.039Z,22.10
2022-11-04T05:10:24.889Z,21.60
2022-11-04T05:13:07.181Z,22.90
2022-11-04T05:15:37.613Z,25.00
2022-11-04T05:18:08.120Z,25.50
2022-11-04T05:20:41.273Z,24.50
2022-11-04T05:23:12.323Z,24.00
2022-11-04T05:25:42.532Z,24.90
2022-11-04T05:28:12.502Z,25.30
2022-11-04T05:30:42.347Z,25.80
2022-11-04T05:33:12.640Z,26.40
2022-11-04T05:35:45.295Z,27.60
2022-11-04T05:38:15.343Z,28.30
2022-11-04T05:40:45.088Z,28.80
2022-11-04T05:43:14.810Z,28.80
2022-11-04T05:45:44.558Z,28.50
2022-11-04T05:48:14.263Z,27.20
2022-11-04T05:50:46.597Z,27.10
2022-11-04T05:53:16.460Z,27.30
2022-11-04T05:55:47.505Z,27.00
2022-11-04T05:58:17.319Z,26.50
2022-11-04T06:00:47.053Z,26.30
2022-11-04T06:03:16.965Z,26.00
2022-11-04T06:05:49.392Z,25.70
2022-11-04T06:08:19.158Z,25.40
2022-11-04T06:10:48.879Z,23.90
2022-11-04T06:13:18.694Z,23.50
2022-11-04T06:15:48.489Z,23.50
2022-11-04T06:18:18.256Z,23.80
2022-11-04T06:20:50.644Z,24.20
2022-11-04T06:23:20.397Z,24.70
2022-11-04T06:25:50.256Z,25.30
2022-11-04T06:28:20.015Z,25.10
2022-11-04T06:30:49.809Z,24.90
2022-11-04T06:33:19.770Z,24.60
2022-11-04T06:35:52.133Z,23.90
2022-11-04T06:38:21.916Z,24.00
2022-11-04T06:40:51.764Z,23.60
2022-11-04T06:43:21.641Z,22.70
2022-11-04T06:45:57.016Z,23.10
2022-11-04T06:48:26.831Z,22.80
2022-11-04T06:50:59.837Z,22.30
2022-11-04T06:53:30.010Z,21.60
2022-11-04T06:56:06.843Z,21.40
2022-11-04T06:58:36.641Z,21.30
2022-11-04T07:01:12.767Z,21.10
2022-11-04T07:03:46.021Z,20.70
2022-11-04T07:06:18.418Z,21.70
2022-11-04T07:08:48.428Z,22.00
2022-11-04T07:11:18.921Z,21.60
2022-11-04T07:13:48.940Z,22.30
2022-11-04T07:16:19.378Z,22.20
2022-11-04T07:18:49.404Z,22.30
2022-11-04T07:21:21.879Z,20.90
2022-11-04T07:23:54.671Z,21.70
2022-11-04T07:26:24.478Z,22.30
2022-11-04T07:28:54.330Z,22.30
2022-11-04T07:31:24.136Z,22.40
2022-11-04T07:33:53.934Z,22.90
2022-11-04T07:36:26.355Z,22.80
2022-11-04T07:38:56.922Z,22.40
2022-11-04T07:41:26.804Z,22.30
2022-11-04T07:43:58.876Z,22.40
2022-11-04T07:46:28.762Z,22.30
2022-11-04T07:49:00.641Z,22.40
2022-11-04T07:51:33.933Z,21.70
2022-11-04T07:54:04.197Z,21.70
2022-11-04T07:56:34.068Z,20.30
2022-11-04T07:59:03.870Z,20.90
2022-11-04T08:01:33.778Z,20.50
2022-11-04T08:04:05.184Z,18.30
2022-11-04T08:06:37.720Z,18.60
2022-11-04T08:09:07.692Z,17.60
2022-11-04T08:11:37.597Z,18.30
2022-11-04T08:14:07.894Z,18.00
2022-11-04T08:16:37.702Z,16.00
2022-11-04T08:19:07.595Z,16.10
2022-11-04T08:21:39.987Z,16.70
2022-11-04T08:24:10.105Z,15.90
2022-11-04T08:26:39.862Z,14.40
2022-11-04T08:29:10.362Z,15.10
2022-11-04T08:31:43.708Z,14.40
2022-11-04T08:34:14.711Z,13.90
2022-11-04T08:36:48.669Z,12.10
2022-11-04T08:39:18.539Z,11.30
2022-11-04T08:41:52.196Z,11.00
2022-11-04T08:44:23.955Z,9.10
2022-11-04T08:46:53.849Z,9.70
2022-11-04T08:49:25.474Z,5.90
2022-11-04T08:51:59.800Z,6.80
2022-11-04T08:54:30.493Z,4.90
2022-11-04T08:57:00.336Z,4.70
2022-11-04T08:59:30.294Z,3.30
2022-11-04T09:02:00.143Z,3.60
2022-11-04T09:04:30.031Z,3.20
2022-11-04T09:07:08.212Z,1.80
2022-11-04T09:09:39.484Z,1.00
2022-11-04T09:12:12.255Z,1.20
2022-11-04T09:14:42.068Z,1.60
2022-11-04T09:17:11.838Z,2.40
2022-11-04T09:19:41.577Z,3.00
2022-11-04T09:22:13.925Z,3.60
2022-11-04T09:24:44.515Z,2.50
2022-11-04T09:27:15.052Z,1.80
2022-11-04T09:29:44.817Z,1.30
2022-11-04T09:32:14.740Z,1.00
2022-11-04T09:34:44.577Z,1.20
2022-11-04T09:37:16.908Z,1.10
2022-11-04T09:39:51.305Z,1.20
2022-11-04T09:42:46.865Z,1.00
2022-11-04T09:45:22.553Z,1.00
2022-11-04T09:47:56.181Z,1.00
2022-11-04T09:50:27.527Z,1.00
2022-11-04T09:53:06.801Z,1.00
2022-11-04T09:55:44.080Z,1.00
2022-11-04T09:58:16.230Z,1.00
2022-11-04T10:00:51.624Z,1.00
2022-11-04T10:03:33.619Z,1.00
2022-11-04T10:06:14.276Z,1.00
2022-11-04T10:08:58.964Z,1.00
2022-11-04T10:11:36.694Z,1.00
2022-11-04T10:14:21.873Z,1.00
2022-11-04T10:17:06.943Z,1.00
2022-11-04T10:19:52.029Z,1.00
2022-11-04T10:22:32.176Z,1.00
2022-11-04T10:25:13.105Z,1.00
2022-11-04T10:27:47.368Z,1.00
2022-11-04T10:30:21.003Z,1.00
2022-11-04T10:33:01.032Z,1.00
2022-11-04T10:35:34.844Z,1.00
2022-11-04T10:38:18.901Z,1.00
2022-11-04T10:40:53.385Z,1.00
2022-11-04T10:43:29.211Z,1.00
2022-11-04T10:46:18.270Z,1.00
2022-11-04T10:48:52.629Z,1.00
2022-11-04T10:51:23.889Z,1.00
2022-11-04T10:53:57.860Z,1.00
2022-11-04T10:56:39.289Z,1.00
2022-11-04T10:59:21.554Z,1.00
2022-11-04T11:01:53.444Z,1.00
2022-11-04T11:04:35.106Z,1.00
2022-11-04T11:07:06.991Z,1.00
2022-11-04T11:09:39.205Z,1.00
2022-11-04T11:12:49.977Z,1.00
2022-11-04T11:15:30.330Z,1.00
2022-11-04T11:18:13.078Z,1.00
2022-11-04T11:20:42.904Z,1.00
2022-11-04T11:23:38.270Z,1.00
2022-11-04T11:26:10.299Z,1.00
2022-11-04T11:28:43.118Z,1.00
2022-11-04T11:31:23.522Z,1.00
2022-11-04T11:33:57.981Z,1.00
2022-11-04T11:36:28.204Z,1.00
2022-11-04T11:39:03.525Z,1.00
2022-11-04T11:41:39.537Z,1.00
2022-11-04T11:44:28.700Z,1.00
2022-11-04T11:47:01.687Z,1.00
2022-11-04T11:49:33.961Z,1.00
2022-11-04T11:52:33.231Z,1.00
2022-11-04T11:55:10.178Z,1.00
2022-11-04T12:00:52.013Z,1.00
2022-11-04T12:09:40.315Z,1.00
2022-11-04T12:12:34.142Z,1.00
2022-11-04T12:15:24.032Z,1.00
2022-11-04T12:18:10.896Z,1.00
2022-11-04T12:20:54.787Z,1.00
2022-11-04T12:23:32.132Z,1.00
2022-11-04T12:26:17.052Z,1.00
2022-11-04T12:29:00.727Z,1.00
2022-11-04T12:31:43.379Z,1.00
2022-11-04T12:34:28.447Z,1.00
2022-11-04T12:37:14.205Z,1.00
2022-11-04T12:39:58.886Z,1.00
2022-11-04T12:42:33.328Z,1.00
2022-11-04T12:45:12.148Z,1.00
2022-11-04T12:47:45.686Z,1.00
2022-11-04T12:50:46.906Z,1.00
2022-11-04T12:53:35.984Z,1.00
2022-11-04T12:56:10.454Z,1.00
2022-11-04T12:59:04.057Z,1.00
2022-11-04T13:01:40.254Z,1.00
2022-11-04T13:04:14.602Z,1.00
2022-11-04T13:06:50.324Z,1.00
2022-11-04T13:09:27.051Z,1.00
2022-11-04T13:12:00.285Z,1.00
2022-11-04T13:14:33.388Z,1.00
2022-11-04T13:17:07.318Z,1.00
2022-11-04T13:19:41.851Z,1.00
2022-11-04T13:22:19.466Z,1.00
2022-11-04T13:24:53.991Z,1.00
2022-11-04T13:27:26.309Z,1.00
2022-11-04T13:30:08.057Z,1.00
2022-11-04T13:32:44.274Z,1.00
2022-11-04T13:35:21.284Z,1.00
2022-11-04T13:38:00.703Z,1.00
2022-11-04T13:40:37.050Z,1.00
2022-11-04T13:43:35.360Z,1.00
2022-11-04T13:46:32.317Z,1.00
2022-11-04T13:49:30.728Z,1.00
2022-11-04T13:52:07.695Z,1.00
2022-11-04T13:54:43.862Z,1.00
2022-11-04T13:57:17.829Z,1.00
2022-11-04T14:00:10.074Z,1.00
2022-11-04T14:02:44.961Z,1.00
2022-11-04T14:05:53.658Z,1.00
2022-11-04T14:08:23.469Z,1.00
2022-11-04T14:11:11.221Z,1.00
2022-11-04T14:14:05.431Z,1.00
2022-11-04T14:16:46.123Z,1.00
2022-11-04T14:19:58.237Z,1.00
2022-11-04T14:22:38.837Z,1.00
2022-11-04T14:25:26.409Z,1.00
2022-11-04T14:28:00.396Z,1.00
2022-11-04T14:30:44.897Z,1.00
2022-11-04T14:33:37.202Z,1.00
2022-11-04T14:36:35.362Z,1.00
2022-11-04T14:39:09.929Z,1.00
2022-11-04T14:41:54.724Z,1.00
2022-11-04T14:44:31.481Z,1.00
2022-11-04T14:47:04.955Z,1.00
2022-11-04T14:49:48.479Z,1.00
2022-11-04T14:52:28.695Z,1.00
2022-11-04T14:55:01.078Z,1.00
2022-11-04T14:57:33.206Z,1.00
2022-11-04T15:00:29.594Z,1.00
2022-11-04T15:03:57.546Z,1.00
2022-11-04T15:06:08.039Z,1.00
2022-11-04T15:08:39.602Z,1.00
2022-11-04T15:11:17.530Z,1.00
2022-11-04T15:13:49.752Z,1.00
2022-11-04T15:16:25.705Z,1.00
2022-11-04T15:18:56.493Z,1.00
2022-11-04T15:21:26.563Z,1.00
2022-11-04T15:23:57.937Z,1.00
2022-11-04T15:26:32.941Z,1.00
2022-11-04T15:29:05.150Z,1.00
2022-11-04T15:31:39.015Z,1.00
2022-11-04T15:34:14.546Z,1.00
2022-11-04T15:36:46.338Z,1.00
2022-11-04T15:39:19.222Z,1.00
2022-11-04T15:42:07.825Z,1.00
2022-11-04T15:44:40.364Z,1.00
2022-11-04T15:47:29.727Z,1.00
2022-11-04T15:50:06.656Z,1.00
2022-11-04T15:52:37.185Z,1.00
2022-11-04T15:55:07.513Z,1.00
2022-11-04T15:57:42.044Z,1.00
2022-11-04T16:00:22.421Z,1.00
2022-11-04T16:02:57.358Z,1.00
2022-11-04T16:05:30.007Z,1.00
2022-11-04T16:08:17.719Z,1.00
2022-11-04T16:10:47.709Z,3.60
2022-11-04T16:13:27.809Z,6.30
2022-11-04T16:16:10.407Z,8.00
2022-11-04T16:18:46.423Z,9.00
2022-11-04T16:21:24.361Z,15.00
2022-11-04T16:23:57.305Z,20.40
2022-11-04T16:26:30.008Z,22.60
2022-11-04T16:29:01.974Z,26.00
2022-11-04T16:31:36.883Z,28.20
2022-11-04T16:34:12.589Z,28.20
2022-11-04T16:36:42.579Z,27.70
2022-11-04T16:39:12.343Z,29.00
2022-11-04T16:41:43.868Z,28.50
2022-11-04T16:44:21.845Z,28.50
2022-11-04T16:46:51.690Z,29.20
2022-11-04T16:49:24.896Z,29.30
2022-11-04T16:51:57.814Z,30.70
2022-11-04T16:54:27.603Z,31.20
2022-11-04T16:56:57.968Z,32.00
2022-11-04T16:59:27.899Z,31.30
2022-11-04T17:01:58.280Z,30.80
2022-11-04T17:04:30.791Z,30.80
2022-11-04T17:07:00.698Z,30.50
2022-11-04T17:09:30.450Z,30.50
2022-11-04T17:12:00.241Z,30.90
2022-11-04T17:14:30.023Z,31.40
2022-11-04T17:17:00.171Z,29.90
2022-11-04T17:19:34.717Z,31.70
2022-11-04T17:22:07.902Z,31.10
2022-11-04T17:24:38.695Z,33.10
2022-11-04T17:27:08.455Z,33.40
2022-11-04T17:29:39.353Z,34.30
2022-11-04T17:32:09.310Z,35.30
2022-11-04T17:34:43.092Z,35.20
2022-11-04T17:40:26.794Z,34.20
2022-11-04T17:43:12.329Z,33.70
2022-11-04T17:45:43.273Z,34.90
2022-11-04T17:48:14.270Z,35.20
2022-11-04T17:50:47.218Z,34.90
2022-11-04T17:53:16.988Z,34.80
2022-11-04T17:55:46.744Z,33.40
2022-11-04T17:58:16.771Z,33.40
2022-11-04T18:00:46.686Z,34.10
2022-11-04T18:03:16.454Z,31.10
2022-11-04T18:05:48.828Z,32.00
2022-11-04T18:08:18.681Z,31.20
2022-11-04T18:10:48.438Z,29.30
2022-11-04T18:13:15.579Z,30.20
2022-11-04T18:15:45.368Z,29.30
2022-11-04T18:18:15.155Z,32.20
2022-11-04T18:20:45.070Z,32.50
2022-11-04T18:23:18.134Z,32.90
2022-11-04T18:25:50.698Z,32.80
2022-11-04T18:28:20.678Z,30.90
2022-11-04T18:30:50.477Z,30.60
2022-11-04T18:33:20.225Z,31.50
2022-11-04T18:35:50.021Z,31.10
2022-11-04T18:38:22.880Z,31.70
2022-11-04T18:40:52.686Z,31.60
2022-11-04T18:43:22.630Z,33.10
2022-11-04T18:45:53.552Z,33.70
2022-11-04T18:48:23.373Z,34.70
2022-11-04T18:50:53.154Z,35.70
2022-11-04T18:53:27.135Z,36.00
2022-11-04T18:55:57.053Z,36.40
2022-11-04T18:58:26.976Z,36.70
2022-11-04T19:00:56.804Z,37.60
2022-11-04T19:03:26.579Z,38.40
2022-11-04T19:05:56.348Z,38.80
2022-11-04T19:08:29.970Z,39.20
2022-11-04T19:11:01.466Z,39.50
2022-11-04T19:13:31.774Z,40.10
2022-11-04T19:16:07.612Z,41.00
2022-11-04T19:18:37.632Z,41.40
2022-11-04T19:21:08.987Z,41.40
2022-11-04T19:23:42.017Z,41.50
2022-11-04T19:26:14.646Z,41.30
2022-11-04T19:28:48.588Z,41.40
2022-11-04T19:31:21.311Z,41.80
2022-11-04T19:33:52.762Z,42.10
2022-11-04T19:36:25.103Z,41.50
2022-11-04T19:38:58.450Z,41.60
2022-11-04T19:41:40.790Z,41.30
2022-11-04T19:44:12.714Z,41.50
2022-11-04T19:46:42.879Z,41.40
2022-11-04T19:49:13.715Z,41.40
2022-11-04T19:51:44.190Z,42.20
2022-11-04T19:54:17.144Z,41.50
2022-11-04T19:56:46.902Z,41.40
2022-11-04T19:59:18.862Z,41.40
2022-11-04T20:01:48.820Z,41.40
2022-11-04T20:04:18.671Z,41.40
2022-11-04T20:06:48.491Z,41.50
2022-11-04T20:09:22.395Z,41.50
2022-11-04T20:12:04.701Z,41.50
2022-11-04T20:14:34.532Z,40.80
2022-11-04T20:17:04.961Z,39.40
2022-11-04T20:19:34.947Z,38.30
2022-11-04T20:22:04.763Z,37.40
2022-11-04T20:24:37.112Z,35.70
2022-11-04T20:27:07.421Z,36.90
2022-11-04T20:29:37.466Z,37.40
2022-11-04T20:32:07.886Z,37.30
2022-11-04T20:34:37.953Z,37.80
2022-11-04T20:37:07.852Z,37.80
2022-11-04T20:39:40.269Z,38.40
2022-11-04T20:42:10.252Z,38.90
2022-11-04T20:44:40.108Z,39.00
2022-11-04T20:47:09.918Z,39.10
2022-11-04T20:49:40.036Z,38.80
2022-11-04T20:52:09.859Z,38.80
2022-11-04T20:54:42.207Z,39.00
2022-11-04T20:57:11.981Z,39.10
2022-11-04T20:59:41.751Z,38.90
2022-11-04T21:02:13.752Z,38.70
2022-11-04T21:04:43.581Z,38.60
2022-11-04T21:07:13.347Z,38.80
2022-11-04T21:09:45.788Z,39.90
2022-11-04T21:12:15.571Z,40.40
2022-11-04T21:14:45.312Z,39.80
2022-11-04T21:17:15.223Z,39.60
2022-11-04T21:19:45.034Z,39.70
2022-11-04T21:22:14.827Z,39.70
2022-11-04T21:24:47.167Z,39.30
2022-11-04T21:27:16.966Z,39.30
2022-11-04T21:29:46.979Z,39.60
2022-11-04T21:32:16.734Z,40.20
2022-11-04T21:34:46.508Z,39.90
2022-11-04T21:37:16.245Z,40.40
2022-11-04T21:39:48.580Z,40.70
2022-11-04T21:42:18.351Z,41.20
2022-11-04T21:44:48.181Z,41.00
2022-11-04T21:47:17.919Z,40.50
2022-11-04T21:49:47.668Z,40.80
2022-11-04T21:52:17.482Z,40.10
2022-11-04T21:54:49.827Z,38.80
2022-11-04T21:57:19.617Z,39.20
2022-11-04T21:59:49.330Z,38.70
2022-11-04T22:02:19.189Z,38.30
2022-11-04T22:04:49.052Z,37.50
2022-11-04T22:07:38.815Z,36.40
2022-11-04T22:10:11.969Z,34.10
2022-11-04T22:12:43.789Z,33.40
2022-11-04T22:15:35.574Z,33.10
2022-11-04T22:18:05.329Z,32.40
2022-11-04T22:20:37.330Z,33.40
2022-11-04T22:23:07.522Z,29.80
2022-11-04T22:25:40.040Z,30.40
2022-11-04T22:28:09.828Z,30.60
2022-11-04T22:30:39.713Z,31.60
2022-11-04T22:33:09.747Z,32.10
2022-11-04T22:35:39.854Z,32.10
2022-11-04T22:38:09.646Z,31.80
2022-11-04T22:40:42.189Z,32.40
2022-11-04T22:43:12.213Z,32.60
2022-11-04T22:45:42.147Z,32.00
2022-11-04T22:48:11.976Z,32.80
2022-11-04T22:50:41.719Z,33.30
2022-11-04T22:53:11.859Z,33.50
2022-11-04T22:55:44.502Z,33.90
2022-11-04T22:58:14.307Z,33.30
2022-11-04T23:00:44.142Z,33.20
2022-11-04T23:03:14.379Z,33.80
2022-11-04T23:05:44.477Z,34.10
2022-11-04T23:08:14.259Z,33.90
2022-11-04T23:10:59.163Z,33.20
2022-11-04T23:13:41.410Z,33.20
2022-11-04T23:16:26.511Z,33.20
2022-11-04T23:18:56.261Z,33.20
2022-11-04T23:21:38.552Z,33.20
2022-11-04T23:24:21.819Z,30.40
2022-11-04T23:26:54.581Z,28.30
2022-11-04T23:29:36.824Z,28.10
2022-11-04T23:32:07.176Z,28.50
2022-11-04T23:34:49.444Z,25.80
2022-11-04T23:37:19.350Z,26.50
2022-11-04T23:39:50.884Z,25.80
2022-11-04T23:42:22.822Z,25.10
2022-11-04T23:45:06.688Z,24.80
2022-11-04T23:47:51.156Z,25.10
2022-11-04T23:50:33.880Z,25.20
2022-11-04T23:53:17.893Z,24.60
2022-11-04T23:56:00.170Z,25.00
2022-11-04T23:58:59.933Z,25.90
